Trutnov, Czech Republic
Current Conditions -  °F | °C
As of 7:00 AM on Saturday 22 Nov 2014 (Local Time) from LKPD Reporting Station
Overcast Overcast  
Wind Chill: 39°   Ceiling: 2800
Heat Index: 39°   Visibility: 6mi
Dew Point: 34°   Wind: 0mph
Humidity: 81%   Direction: NA
Pressure: 30.27"   Gusts: NA
Location:  50.57°N, 15.9°E
Report Text: LKPD 220500Z 00000KT 9999 OVC028 04/01 Q1025 NOSIG
Loading
Personal Weather Stations






























Interactive Weather Map New forecast layout! Learn more

10-Day Weather Forecast

Advertisements
Track Severe Weather on mobile